createdAt,value
2016-06-06T08:40:08.027Z,1008.62
2016-06-06T08:41:08.045Z,1008.64
2016-06-06T08:42:08.080Z,1008.65
2016-06-06T08:43:08.114Z,1008.65
2016-06-06T08:44:08.147Z,1008.69
2016-06-06T08:45:08.181Z,1008.65
2016-06-06T08:46:08.199Z,1008.69
2016-06-06T08:47:08.233Z,1008.67
2016-06-06T08:48:08.268Z,1008.71
2016-06-06T08:49:08.286Z,1008.68
2016-06-06T08:50:08.319Z,1008.66
2016-06-06T08:51:08.354Z,1008.66
2016-06-06T08:52:08.388Z,1008.75
2016-06-06T08:53:08.421Z,1008.71
2016-06-06T08:54:08.440Z,1008.77
2016-06-06T08:55:08.490Z,1008.75
2016-06-06T08:56:08.507Z,1008.76
2016-06-06T08:57:08.542Z,1008.78
2016-06-06T08:58:08.590Z,1008.8
2016-06-06T08:59:08.969Z,1008.82
2016-06-06T09:00:08.628Z,1008.81
2016-06-06T09:01:08.662Z,1008.78
2016-06-06T09:02:08.712Z,1008.8
2016-06-06T09:03:08.729Z,1008.82
2016-06-06T09:04:08.748Z,1008.81
2016-06-06T09:05:08.782Z,1008.83
2016-06-06T09:06:08.816Z,1008.81
2016-06-06T09:07:08.850Z,1008.79
2016-06-06T09:08:08.883Z,1008.8
2016-06-06T09:09:08.918Z,1008.82
2016-06-06T09:10:08.952Z,1008.87
2016-06-06T09:11:08.970Z,1008.86
2016-06-06T09:12:09.004Z,1008.88
2016-06-06T09:13:09.038Z,1008.88
2016-06-06T09:14:09.072Z,1008.9
2016-06-06T09:15:09.105Z,1008.91
2016-06-06T09:16:09.139Z,1008.85
2016-06-06T09:17:09.158Z,1008.93
2016-06-06T09:18:09.192Z,1008.91
2016-06-06T09:19:09.226Z,1008.93
2016-06-06T09:20:09.354Z,1008.97
2016-06-06T09:21:09.294Z,1008.99
2016-06-06T09:22:09.312Z,1009.01
2016-06-06T09:23:09.346Z,1008.97
2016-06-06T09:24:09.380Z,1009
2016-06-06T09:25:09.413Z,1008.99
2016-06-06T09:26:09.448Z,1008.99
2016-06-06T09:27:09.482Z,1008.96
2016-06-06T09:28:09.579Z,1009
2016-06-06T09:29:10.331Z,1008.99
2016-06-06T09:30:09.584Z,1008.97
2016-06-06T09:31:09.617Z,1009.01
2016-06-06T09:32:09.636Z,1009.02
2016-06-06T09:33:09.685Z,1008.99
2016-06-06T09:34:09.704Z,1008.96
2016-06-06T09:35:09.738Z,1008.95
2016-06-06T09:36:09.772Z,1008.95
2016-06-06T09:37:09.806Z,1008.96
2016-06-06T09:38:09.839Z,1009.01
2016-06-06T09:39:09.873Z,1008.98
2016-06-06T09:40:09.908Z,1008.97
2016-06-06T09:41:09.942Z,1009.02
2016-06-06T09:42:09.959Z,1008.99
2016-06-06T09:43:09.994Z,1009
2016-06-06T09:44:10.027Z,1009
2016-06-06T09:45:10.062Z,1008.95
2016-06-06T09:46:10.111Z,1008.94
2016-06-06T09:47:10.130Z,1008.96
2016-06-06T09:48:10.163Z,1008.97
2016-06-06T09:49:10.197Z,1008.99
2016-06-06T09:50:10.230Z,1008.97
2016-06-06T09:51:10.265Z,1008.97
2016-06-06T09:52:10.299Z,1008.99
2016-06-06T09:53:10.333Z,1009.01
2016-06-06T09:54:10.367Z,1008.97
2016-06-06T09:55:10.416Z,1008.98
2016-06-06T09:56:10.419Z,1009.02
2016-06-06T09:57:10.516Z,1009
2016-06-06T09:58:10.487Z,1009.04
2016-06-06T09:59:10.521Z,1008.97
2016-06-06T10:00:10.555Z,1009.03
2016-06-06T10:01:10.590Z,1009.06
2016-06-06T10:02:10.623Z,1009.05
2016-06-06T10:03:10.657Z,1008.99
2016-06-06T10:04:10.706Z,1009.02
2016-06-06T10:05:10.725Z,1009.05
2016-06-06T10:06:10.759Z,1009.04
2016-06-06T10:07:10.793Z,1009.06
2016-06-06T10:08:10.826Z,1009.04
2016-06-06T10:09:10.861Z,1009.03
2016-06-06T10:10:10.894Z,1009.01
2016-06-06T10:11:11.023Z,1009.06
2016-06-06T10:12:10.962Z,1009.03
2016-06-06T10:13:10.996Z,1009.08
2016-06-06T10:14:11.031Z,1009
2016-06-06T10:15:11.064Z,1008.99
2016-06-06T10:16:11.114Z,1009.03
2016-06-06T10:17:11.132Z,1009.01
2016-06-06T10:18:11.181Z,1009.05
2016-06-06T10:19:11.216Z,1009.09
2016-06-06T10:20:11.250Z,1009.04
2016-06-06T10:21:11.268Z,1009.03
2016-06-06T10:22:11.333Z,1009.06
2016-06-06T10:23:11.352Z,1009.04
2016-06-06T10:24:11.369Z,1009.06
2016-06-06T10:25:11.404Z,1009.1
2016-06-06T10:26:11.438Z,1009.03
2016-06-06T10:27:11.487Z,1009.07
2016-06-06T10:28:11.520Z,1009.07
2016-06-06T10:29:11.555Z,1009.08
2016-06-06T10:30:11.588Z,1009.06
2016-06-06T10:31:11.623Z,1009.14
2016-06-06T10:32:11.656Z,1009.1
2016-06-06T10:33:11.706Z,1009.12
2016-06-06T10:34:11.740Z,1009.13
2016-06-06T10:35:11.759Z,1009.15
2016-06-06T10:36:11.792Z,1009.14
2016-06-06T10:37:11.842Z,1009.17
2016-06-06T10:38:11.859Z,1009.11
2016-06-06T10:39:11.895Z,1009.12
2016-06-06T10:40:11.928Z,1009.11
2016-06-06T10:41:11.962Z,1009.12
2016-06-06T10:42:12.011Z,1009.17
2016-06-06T10:43:12.045Z,1009.12
2016-06-06T10:44:12.408Z,1009.16
2016-06-06T10:45:12.114Z,1009.1
2016-06-06T10:46:12.147Z,1009.15
2016-06-06T10:47:12.181Z,1009.13
2016-06-06T10:48:12.216Z,1009.16
2016-06-06T10:49:12.264Z,1009.12
2016-06-06T10:50:12.299Z,1009.14
2016-06-06T10:51:12.333Z,1009.13
2016-06-06T10:52:12.367Z,1009.13
2016-06-06T10:53:12.400Z,1009.07
2016-06-06T10:54:12.435Z,1009.15
2016-06-06T10:55:12.469Z,1009.14
2016-06-06T10:56:12.502Z,1009.1
2016-06-06T10:57:12.552Z,1009.06
2016-06-06T10:58:12.570Z,1009.11
2016-06-06T10:59:12.620Z,1009.09
2016-06-06T11:00:12.654Z,1009.11
2016-06-06T11:01:12.688Z,1009.09
2016-06-06T11:02:12.721Z,1009.1
2016-06-06T11:03:12.771Z,1009.08
2016-06-06T11:04:12.790Z,1009.1
2016-06-06T11:05:12.840Z,1009.12
2016-06-06T11:06:12.874Z,1009.1
2016-06-06T11:07:12.907Z,1009.11
2016-06-06T11:08:12.940Z,1009.12
2016-06-06T11:09:12.975Z,1009.15
2016-06-06T11:10:13.009Z,1009.14
2016-06-06T11:11:13.043Z,1009.14
2016-06-06T11:12:13.092Z,1009.14
2016-06-06T11:13:13.126Z,1009.1
2016-06-06T11:14:13.645Z,1009.12
2016-06-06T11:15:13.194Z,1009.06
2016-06-06T11:16:13.228Z,1009.08
2016-06-06T11:17:13.261Z,1009.13
2016-06-06T11:18:13.312Z,1009.09
2016-06-06T11:19:13.345Z,1009.07
2016-06-06T11:20:13.380Z,1008.99
2016-06-06T11:21:13.414Z,1009
2016-06-06T11:22:13.447Z,1009.01
2016-06-06T11:23:13.481Z,1008.97
2016-06-06T11:24:13.531Z,1009
2016-06-06T11:25:13.565Z,1008.99
2016-06-06T11:26:13.599Z,1008.97
2016-06-06T11:27:13.633Z,1008.98
2016-06-06T11:28:13.666Z,1009.02
2016-06-06T11:29:13.716Z,1009
2016-06-06T11:30:13.954Z,1008.96
2016-06-06T11:31:13.784Z,1009
2016-06-06T11:32:13.818Z,1008.98
2016-06-06T11:33:13.868Z,1008.99
2016-06-06T11:34:13.901Z,1009.02
2016-06-06T11:35:13.935Z,1009.01
2016-06-06T11:36:13.970Z,1009
2016-06-06T11:37:14.004Z,1009.01
2016-06-06T11:38:14.053Z,1009.01
2016-06-06T11:39:14.087Z,1009
2016-06-06T11:40:14.136Z,1008.98
2016-06-06T11:41:14.154Z,1008.95
2016-06-06T11:42:14.189Z,1008.99
2016-06-06T11:43:14.239Z,1008.91
2016-06-06T11:44:14.272Z,1008.89
2016-06-06T11:45:14.306Z,1008.94
2016-06-06T11:46:14.356Z,1008.91
2016-06-06T11:47:14.389Z,1008.89
2016-06-06T11:48:14.423Z,1008.94
2016-06-06T11:49:14.458Z,1008.96
2016-06-06T11:50:14.492Z,1008.95
2016-06-06T11:51:14.541Z,1008.95
2016-06-06T11:52:14.575Z,1008.94
2016-06-06T11:53:14.609Z,1008.92
2016-06-06T11:54:14.658Z,1008.91
2016-06-06T11:55:14.692Z,1008.9
2016-06-06T11:56:14.727Z,1008.94
2016-06-06T11:57:14.760Z,1008.96
2016-06-06T11:58:14.794Z,1008.97
2016-06-06T11:59:14.843Z,1008.95
2016-06-06T12:00:14.878Z,1008.95
2016-06-06T12:01:14.912Z,1008.95
2016-06-06T12:02:14.945Z,1008.95
2016-06-06T12:03:14.996Z,1008.92
2016-06-06T12:04:15.030Z,1008.93
2016-06-06T12:05:15.079Z,1008.97
2016-06-06T12:06:15.112Z,1008.98
2016-06-06T12:07:15.147Z,1008.98
2016-06-06T12:08:15.181Z,1008.97
2016-06-06T12:09:15.214Z,1008.97
2016-06-06T12:10:15.265Z,1009
2016-06-06T12:11:15.298Z,1008.99
2016-06-06T12:12:15.348Z,1008.95
2016-06-06T12:13:15.429Z,1008.97
2016-06-06T12:14:15.431Z,1008.96
2016-06-06T12:15:15.450Z,1008.94
2016-06-06T12:16:15.499Z,1008.94
2016-06-06T12:17:15.533Z,1008.94
2016-06-06T12:18:15.567Z,1008.9
2016-06-06T12:19:15.617Z,1008.96
2016-06-06T12:20:15.650Z,1009.02
2016-06-06T12:21:15.684Z,1008.98
2016-06-06T12:22:15.719Z,1008.94
2016-06-06T12:23:15.767Z,1008.94
2016-06-06T12:24:15.802Z,1008.92
2016-06-06T12:25:15.835Z,1008.91
2016-06-06T12:26:15.885Z,1008.84
2016-06-06T12:27:15.919Z,1008.88
2016-06-06T12:28:15.952Z,1008.88
2016-06-06T12:29:16.002Z,1008.9
2016-06-06T12:30:16.255Z,1008.92
2016-06-06T12:31:16.086Z,1008.95
2016-06-06T12:32:16.136Z,1008.91
2016-06-06T12:33:16.154Z,1008.9
2016-06-06T12:34:16.187Z,1008.95
2016-06-06T12:35:16.238Z,1008.93
2016-06-06T12:36:16.271Z,1008.99
2016-06-06T12:37:16.305Z,1008.94
2016-06-06T12:38:16.354Z,1008.96
2016-06-06T12:39:16.389Z,1008.97
2016-06-06T12:40:16.423Z,1008.95
2016-06-06T12:41:16.473Z,1008.94
2016-06-06T12:42:16.506Z,1008.94
2016-06-06T12:43:16.541Z,1008.92
2016-06-06T12:44:16.590Z,1008.94
2016-06-06T12:45:16.639Z,1008.94
2016-06-06T12:46:16.658Z,1008.99
2016-06-06T12:47:16.707Z,1008.92
2016-06-06T12:48:16.742Z,1008.97
2016-06-06T12:49:16.775Z,1008.94
2016-06-06T12:50:16.856Z,1008.93
2016-06-06T12:51:16.875Z,1008.94
2016-06-06T12:52:16.908Z,1008.94
2016-06-06T12:53:16.942Z,1008.9
2016-06-06T12:54:16.992Z,1008.84
2016-06-06T12:55:17.026Z,1008.87
2016-06-06T12:56:17.060Z,1008.92
2016-06-06T12:57:17.108Z,1008.9
2016-06-06T12:58:17.143Z,1008.92
2016-06-06T12:59:17.521Z,1008.92
2016-06-06T13:00:17.227Z,1008.88
2016-06-06T13:01:17.261Z,1008.91
2016-06-06T13:02:17.294Z,1008.89
2016-06-06T13:03:17.344Z,1008.87
2016-06-06T13:04:17.377Z,1008.82
2016-06-06T13:05:17.413Z,1008.83
2016-06-06T13:06:17.462Z,1008.8
2016-06-06T13:07:17.510Z,1008.93
2016-06-06T13:08:17.546Z,1008.91
2016-06-06T13:09:17.579Z,1008.91
2016-06-06T13:10:17.613Z,1008.9
2016-06-06T13:11:17.662Z,1008.95
2016-06-06T13:12:17.712Z,1008.92
2016-06-06T13:13:17.731Z,1008.94
2016-06-06T13:14:18.405Z,1008.94
2016-06-06T13:15:17.829Z,1008.91
2016-06-06T13:16:17.864Z,1008.92
2016-06-06T13:17:17.897Z,1008.89
2016-06-06T13:18:17.947Z,1008.88
2016-06-06T13:19:17.981Z,1008.91
2016-06-06T13:20:18.031Z,1008.84
2016-06-06T13:21:18.173Z,1008.84
2016-06-06T13:22:18.098Z,1008.8
2016-06-06T13:23:18.148Z,1008.77
2016-06-06T13:24:18.181Z,1008.86
2016-06-06T13:25:18.231Z,1008.83
2016-06-06T13:26:18.266Z,1008.84
2016-06-06T13:27:18.314Z,1008.79
2016-06-06T13:28:18.349Z,1008.83
2016-06-06T13:29:18.383Z,1008.79
2016-06-06T13:30:18.697Z,1008.78
2016-06-06T13:31:18.466Z,1008.82
2016-06-06T13:32:18.500Z,1008.78
2016-06-06T13:33:18.549Z,1008.79
2016-06-06T13:34:18.599Z,1008.77
2016-06-06T13:35:18.633Z,1008.81
2016-06-06T13:36:18.668Z,1008.8
2016-06-06T13:37:18.716Z,1008.83
2016-06-06T13:38:18.766Z,1008.83
2016-06-06T13:39:18.785Z,1008.81
2016-06-06T13:40:18.834Z,1008.79
2016-06-06T13:41:18.868Z,1008.81
2016-06-06T13:42:18.917Z,1008.81
2016-06-06T13:43:18.952Z,1008.82
2016-06-06T13:44:19.502Z,1008.81
2016-06-06T13:45:19.035Z,1008.81
2016-06-06T13:46:19.069Z,1008.87
2016-06-06T13:47:19.119Z,1008.86
2016-06-06T13:48:19.153Z,1008.8
2016-06-06T13:49:19.202Z,1008.78
2016-06-06T13:50:19.236Z,1008.76
2016-06-06T13:51:19.270Z,1008.84
2016-06-06T13:52:19.320Z,1008.89
2016-06-06T13:53:19.353Z,1008.89
2016-06-06T13:54:19.387Z,1008.88
2016-06-06T13:55:19.437Z,1008.85
2016-06-06T13:56:19.486Z,1008.89
2016-06-06T13:57:19.520Z,1008.86
2016-06-06T13:58:19.569Z,1008.93
2016-06-06T13:59:19.604Z,1008.97
2016-06-06T14:00:19.638Z,1008.97
2016-06-06T14:01:19.688Z,1008.99
2016-06-06T14:02:19.722Z,1008.95
2016-06-06T14:03:19.771Z,1009.01
2016-06-06T14:04:19.805Z,1008.97
2016-06-06T14:05:19.855Z,1008.96
2016-06-06T14:06:19.889Z,1008.88
2016-06-06T14:07:19.922Z,1008.98
2016-06-06T14:08:19.972Z,1008.99
2016-06-06T14:09:20.006Z,1008.98
2016-06-06T14:10:20.055Z,1009.02
2016-06-06T14:11:20.090Z,1008.98
2016-06-06T14:12:20.140Z,1008.99
2016-06-06T14:13:20.173Z,1009.05
2016-06-06T14:14:20.207Z,1009.04
2016-06-06T14:15:20.257Z,1009.01
2016-06-06T14:16:20.307Z,1009.03
2016-06-06T14:17:20.340Z,1009.02
2016-06-06T14:18:20.436Z,1008.99
2016-06-06T14:19:20.408Z,1009.08
2016-06-06T14:20:20.457Z,1009.05
2016-06-06T14:21:20.491Z,1009.01
2016-06-06T14:22:20.541Z,1009
2016-06-06T14:23:20.590Z,1009.01
2016-06-06T14:24:20.625Z,1009.01
2016-06-06T14:25:20.659Z,1009.05
2016-06-06T14:26:20.708Z,1009.01
2016-06-06T14:27:20.757Z,1009.05
2016-06-06T14:28:20.808Z,1009.03
2016-06-06T14:29:20.825Z,1009.06
2016-06-06T14:30:20.874Z,1009.01
2016-06-06T14:31:20.909Z,1008.99
2016-06-06T14:32:20.943Z,1009.01
2016-06-06T14:33:20.992Z,1009
2016-06-06T14:34:21.026Z,1009.02
2016-06-06T14:35:21.076Z,1009.06
2016-06-06T14:36:21.110Z,1009.01
2016-06-06T14:37:21.160Z,1008.99
2016-06-06T14:38:21.209Z,1008.95
2016-06-06T14:39:21.244Z,1008.9
2016-06-06T14:40:21.293Z,1008.93
2016-06-06T14:41:21.326Z,1009.01
2016-06-06T14:42:21.360Z,1008.98
2016-06-06T14:43:21.410Z,1008.97
2016-06-06T14:44:21.444Z,1008.99
2016-06-06T14:45:21.493Z,1009
2016-06-06T14:46:21.543Z,1008.97
2016-06-06T14:47:21.576Z,1008.98
2016-06-06T14:48:21.612Z,1008.92
2016-06-06T14:49:21.676Z,1008.93
2016-06-06T14:50:21.709Z,1008.94
2016-06-06T14:51:21.744Z,1008.93
2016-06-06T14:52:21.793Z,1008.97
2016-06-06T14:53:21.827Z,1008.96
2016-06-06T14:54:21.861Z,1009.01
2016-06-06T14:55:21.911Z,1008.98
2016-06-06T14:56:21.945Z,1008.94
2016-06-06T14:57:21.994Z,1008.99
2016-06-06T14:58:22.045Z,1008.95
2016-06-06T14:59:22.078Z,1008.94
2016-06-06T15:00:22.128Z,1008.92
2016-06-06T15:01:22.161Z,1008.94
2016-06-06T15:02:22.195Z,1008.92
2016-06-06T15:03:22.245Z,1008.95
2016-06-06T15:04:22.279Z,1008.92
2016-06-06T15:05:22.328Z,1008.93
2016-06-06T15:06:22.363Z,1008.97
2016-06-06T15:07:22.412Z,1008.97
2016-06-06T15:08:22.447Z,1008.92
2016-06-06T15:09:22.496Z,1008.92
2016-06-06T15:10:22.529Z,1008.91
2016-06-06T15:11:22.579Z,1008.87
2016-06-06T15:12:22.644Z,1008.9
2016-06-06T15:13:22.662Z,1008.89
2016-06-06T15:14:22.696Z,1008.88
2016-06-06T15:15:22.746Z,1008.89
2016-06-06T15:16:22.779Z,1008.87
2016-06-06T15:17:22.829Z,1008.9
2016-06-06T15:18:22.863Z,1008.93
2016-06-06T15:19:22.913Z,1008.89
2016-06-06T15:20:22.948Z,1008.87
2016-06-06T15:21:22.996Z,1008.91
2016-06-06T15:22:23.031Z,1008.91
2016-06-06T15:23:23.081Z,1008.89
2016-06-06T15:24:23.115Z,1008.95
2016-06-06T15:25:23.164Z,1008.89
2016-06-06T15:26:23.197Z,1008.91
2016-06-06T15:27:23.247Z,1008.87
2016-06-06T15:28:23.281Z,1008.82
2016-06-06T15:29:29.393Z,1008.79
2016-06-06T15:30:23.456Z,1008.83
2016-06-06T15:31:23.396Z,1008.85
2016-06-06T15:32:23.445Z,1008.86
2016-06-06T15:33:23.480Z,1008.85
2016-06-06T15:34:23.528Z,1008.87
2016-06-06T15:35:23.564Z,1008.85
2016-06-06T15:36:23.613Z,1008.87
2016-06-06T15:37:23.647Z,1008.85
2016-06-06T15:38:23.696Z,1008.87
2016-06-06T15:39:23.730Z,1008.88
2016-06-06T15:40:23.780Z,1008.84
2016-06-06T15:41:23.813Z,1008.91
2016-06-06T15:42:23.863Z,1008.85
2016-06-06T15:43:23.896Z,1008.84
2016-06-06T15:44:23.946Z,1008.86
2016-06-06T15:45:23.980Z,1008.88
2016-06-06T15:46:24.030Z,1008.88
2016-06-06T15:47:24.064Z,1008.87
2016-06-06T15:48:24.113Z,1008.91
2016-06-06T15:49:24.148Z,1008.93
2016-06-06T15:50:24.182Z,1008.91
2016-06-06T15:51:24.232Z,1008.89
2016-06-06T15:52:24.296Z,1008.88
2016-06-06T15:53:24.315Z,1008.9
2016-06-06T15:54:24.348Z,1008.88
2016-06-06T15:55:24.398Z,1008.88
2016-06-06T15:56:24.432Z,1008.88
2016-06-06T15:57:24.465Z,1008.85
2016-06-06T15:58:24.515Z,1008.86
2016-06-06T15:59:24.550Z,1008.83
2016-06-06T16:00:24.599Z,1008.82
2016-06-06T16:01:24.633Z,1008.82
2016-06-06T16:02:24.683Z,1008.8
2016-06-06T16:03:24.717Z,1008.82
2016-06-06T16:04:24.766Z,1008.83
2016-06-06T16:05:24.800Z,1008.83
2016-06-06T16:06:24.881Z,1008.81
2016-06-06T16:07:24.883Z,1008.78
2016-06-06T16:08:24.917Z,1008.79
2016-06-06T16:09:24.967Z,1008.75
2016-06-06T16:10:25.001Z,1008.8
2016-06-06T16:11:25.050Z,1008.8
2016-06-06T16:12:25.085Z,1008.79
2016-06-06T16:13:25.134Z,1008.87
2016-06-06T16:14:25.200Z,1008.87
2016-06-06T16:15:25.202Z,1008.85
2016-06-06T16:16:25.252Z,1008.83
2016-06-06T16:17:25.285Z,1008.82
2016-06-06T16:18:25.335Z,1008.85
2016-06-06T16:19:25.369Z,1008.82
2016-06-06T16:20:25.403Z,1008.81
2016-06-06T16:21:25.452Z,1008.77
2016-06-06T16:22:25.487Z,1008.8
2016-06-06T16:23:25.536Z,1008.76
2016-06-06T16:24:25.570Z,1008.78
2016-06-06T16:25:25.620Z,1008.78
2016-06-06T16:26:25.654Z,1008.78
2016-06-06T16:27:25.687Z,1008.84
2016-06-06T16:28:25.737Z,1008.81
2016-06-06T16:29:25.771Z,1008.81
2016-06-06T16:30:25.820Z,1008.85
2016-06-06T16:31:25.854Z,1008.81
2016-06-06T16:32:25.904Z,1008.77
2016-06-06T16:33:25.937Z,1008.76
2016-06-06T16:34:25.972Z,1008.74
2016-06-06T16:35:26.022Z,1008.76
2016-06-06T16:36:26.056Z,1008.78
2016-06-06T16:37:26.105Z,1008.75
2016-06-06T16:38:26.139Z,1008.75
2016-06-06T16:39:26.173Z,1008.81
2016-06-06T16:40:26.238Z,1008.82
2016-06-06T16:41:26.256Z,1008.79
2016-06-06T16:42:26.306Z,1008.8
2016-06-06T16:43:26.344Z,1008.83
2016-06-06T16:44:26.384Z,1008.83
2016-06-06T16:45:26.438Z,1008.81
2016-06-06T16:46:26.477Z,1008.78
2016-06-06T16:47:26.532Z,1008.78
2016-06-06T16:48:26.568Z,1008.82
2016-06-06T16:49:26.603Z,1008.81
2016-06-06T16:50:26.653Z,1008.8
2016-06-06T16:51:26.689Z,1008.82
2016-06-06T16:52:26.725Z,1008.83
2016-06-06T16:53:26.775Z,1008.87
2016-06-06T16:54:26.810Z,1008.83
2016-06-06T16:55:26.861Z,1008.87
2016-06-06T16:56:26.895Z,1008.84
2016-06-06T16:57:26.930Z,1008.84
2016-06-06T16:58:26.980Z,1008.87
2016-06-06T16:59:27.013Z,1008.87
2016-06-06T17:00:27.298Z,1008.9
2016-06-06T17:01:27.098Z,1008.92
2016-06-06T17:02:27.148Z,1008.91
2016-06-06T17:03:27.182Z,1008.94
2016-06-06T17:04:27.216Z,1008.91
2016-06-06T17:05:27.250Z,1008.93
2016-06-06T17:06:27.299Z,1008.94
2016-06-06T17:07:27.350Z,1008.92
2016-06-06T17:08:27.367Z,1008.91
2016-06-06T17:09:27.417Z,1008.9
2016-06-06T17:10:27.451Z,1008.89
2016-06-06T17:11:27.500Z,1008.9
2016-06-06T17:12:27.535Z,1008.89
2016-06-06T17:13:27.569Z,1008.85
2016-06-06T17:14:28.555Z,1008.84
2016-06-06T17:15:27.652Z,1008.81
2016-06-06T17:16:27.686Z,1008.83
2016-06-06T17:17:27.735Z,1008.81
2016-06-06T17:18:27.769Z,1008.79
2016-06-06T17:19:27.804Z,1008.8
2016-06-06T17:20:27.852Z,1008.8
2016-06-06T17:21:27.887Z,1008.79
2016-06-06T17:22:27.937Z,1008.79
2016-06-06T17:23:27.971Z,1008.82
2016-06-06T17:24:28.004Z,1008.85
2016-06-06T17:25:28.038Z,1008.87
2016-06-06T17:26:28.087Z,1008.88
2016-06-06T17:27:28.121Z,1008.91
2016-06-06T17:28:28.171Z,1008.92
2016-06-06T17:29:28.220Z,1008.91
2016-06-06T17:30:28.255Z,1008.94
2016-06-06T17:31:28.273Z,1008.92
2016-06-06T17:32:28.322Z,1008.9
2016-06-06T17:33:28.357Z,1008.94
2016-06-06T17:34:28.390Z,1008.9
2016-06-06T17:35:28.439Z,1008.9
2016-06-06T17:36:28.474Z,1008.96
2016-06-06T17:37:28.508Z,1008.92
2016-06-06T17:38:28.557Z,1008.94
2016-06-06T17:39:28.592Z,1008.93
2016-06-06T17:40:28.625Z,1008.94
2016-06-06T17:41:28.674Z,1008.99
2016-06-06T17:42:28.709Z,1008.96
2016-06-06T17:43:28.743Z,1008.99
2016-06-06T17:44:28.777Z,1009.02
2016-06-06T17:45:28.826Z,1009.06
2016-06-06T17:46:28.861Z,1009.07
2016-06-06T17:47:28.894Z,1009.02
2016-06-06T17:48:28.927Z,1009.05
2016-06-06T17:49:28.978Z,1009.03
2016-06-06T17:50:29.012Z,1009.03
2016-06-06T17:51:29.045Z,1009
2016-06-06T17:52:29.095Z,1009.05
2016-06-06T17:53:29.129Z,1009.02
2016-06-06T17:54:29.163Z,1009.04
2016-06-06T17:55:29.212Z,1009.02
2016-06-06T17:56:29.246Z,1009.02
2016-06-06T17:57:29.281Z,1009.04
2016-06-06T17:58:29.314Z,1009.03
2016-06-06T17:59:29.348Z,1009.05
2016-06-06T18:00:30.117Z,1009.05
2016-06-06T18:01:29.432Z,1009.02
2016-06-06T18:02:29.465Z,1009.03
2016-06-06T18:03:29.515Z,1009.05
2016-06-06T18:04:29.550Z,1009.05
2016-06-06T18:05:29.583Z,1009.05
2016-06-06T18:06:29.617Z,1009.06
2016-06-06T18:07:29.651Z,1009.09
2016-06-06T18:08:29.700Z,1009.11
2016-06-06T18:09:29.734Z,1009.07
2016-06-06T18:10:29.769Z,1009.1
2016-06-06T18:11:29.818Z,1009.09
2016-06-06T18:12:29.852Z,1009.11
2016-06-06T18:13:29.886Z,1009.11
2016-06-06T18:14:30.405Z,1009.12
2016-06-06T18:15:29.954Z,1009.1
2016-06-06T18:16:30.003Z,1009.12
2016-06-06T18:17:30.038Z,1009.12
2016-06-06T18:18:30.071Z,1009.14
2016-06-06T18:19:30.121Z,1009.13
2016-06-06T18:20:30.139Z,1009.13
2016-06-06T18:21:30.189Z,1009.1
2016-06-06T18:22:30.223Z,1009.15
2016-06-06T18:23:30.257Z,1009.18
2016-06-06T18:24:30.290Z,1009.2
2016-06-06T18:25:30.341Z,1009.21
2016-06-06T18:26:30.373Z,1009.21
2016-06-06T18:27:30.407Z,1009.22
2016-06-06T18:28:30.442Z,1009.23
2016-06-06T18:29:30.476Z,1009.24
2016-06-06T18:30:30.556Z,1009.25
2016-06-06T18:31:30.560Z,1009.28
2016-06-06T18:32:30.593Z,1009.3
2016-06-06T18:33:30.627Z,1009.28
2016-06-06T18:34:30.661Z,1009.3
2016-06-06T18:35:30.695Z,1009.3
2016-06-06T18:36:30.745Z,1009.28
2016-06-06T18:37:30.778Z,1009.31
2016-06-06T18:38:30.812Z,1009.33
2016-06-06T18:39:30.847Z,1009.36
2016-06-06T18:40:30.880Z,1009.37
2016-06-06T18:41:30.930Z,1009.35
2016-06-06T18:42:30.964Z,1009.34
2016-06-06T18:43:30.997Z,1009.39
2016-06-06T18:44:31.033Z,1009.37
2016-06-06T18:45:31.066Z,1009.37
2016-06-06T18:46:31.100Z,1009.4
2016-06-06T18:47:31.133Z,1009.41
2016-06-06T18:48:31.183Z,1009.39
2016-06-06T18:49:31.217Z,1009.44
2016-06-06T18:50:31.251Z,1009.41
2016-06-06T18:51:31.285Z,1009.39
2016-06-06T18:52:31.319Z,1009.41
2016-06-06T18:53:31.353Z,1009.39
2016-06-06T18:54:31.402Z,1009.35
2016-06-06T18:55:31.436Z,1009.43
2016-06-06T18:56:31.471Z,1009.4
2016-06-06T18:57:31.504Z,1009.41
2016-06-06T18:58:31.538Z,1009.4
2016-06-06T18:59:31.885Z,1009.37
2016-06-06T19:00:31.606Z,1009.41
2016-06-06T19:01:31.639Z,1009.4
2016-06-06T19:02:31.689Z,1009.41
2016-06-06T19:03:31.723Z,1009.45
2016-06-06T19:04:31.757Z,1009.46
2016-06-06T19:05:31.791Z,1009.41
2016-06-06T19:06:31.856Z,1009.43
2016-06-06T19:07:31.859Z,1009.43
2016-06-06T19:08:31.893Z,1009.41
2016-06-06T19:09:31.927Z,1009.44
2016-06-06T19:10:31.977Z,1009.43
2016-06-06T19:11:32.042Z,1009.45
2016-06-06T19:12:32.045Z,1009.47
2016-06-06T19:13:32.078Z,1009.48
2016-06-06T19:14:32.175Z,1009.46
2016-06-06T19:15:32.146Z,1009.48
2016-06-06T19:16:32.681Z,1009.45
2016-06-06T19:17:32.214Z,1009.48
2016-06-06T19:18:32.249Z,1009.46
2016-06-06T19:19:32.282Z,1009.47
2016-06-06T19:20:32.316Z,1009.45
2016-06-06T19:21:32.366Z,1009.47
2016-06-06T19:22:32.400Z,1009.49
2016-06-06T19:23:32.433Z,1009.48
2016-06-06T19:24:32.468Z,1009.48
2016-06-06T19:25:32.501Z,1009.53
2016-06-06T19:26:32.535Z,1009.52
2016-06-06T19:27:32.569Z,1009.56
2016-06-06T19:28:32.603Z,1009.58
2016-06-06T19:29:32.653Z,1009.58
2016-06-06T19:30:32.671Z,1009.58
2016-06-06T19:31:32.737Z,1009.62
2016-06-06T19:32:32.739Z,1009.6
2016-06-06T19:33:32.789Z,1009.59
2016-06-06T19:34:32.823Z,1009.63
2016-06-06T19:35:33.372Z,1009.59
2016-06-06T19:36:32.890Z,1009.58
2016-06-06T19:37:32.925Z,1009.57
2016-06-06T19:38:32.959Z,1009.6
2016-06-06T19:39:32.992Z,1009.58
2016-06-06T19:40:33.026Z,1009.59
2016-06-06T19:41:33.061Z,1009.6
2016-06-06T19:42:33.094Z,1009.6
2016-06-06T19:43:33.128Z,1009.61
2016-06-06T19:44:33.162Z,1009.6
2016-06-06T19:50:29.584Z,1009.63
2016-06-06T19:51:29.555Z,1009.65
2016-06-06T19:52:29.590Z,1009.71
2016-06-06T19:53:29.624Z,1009.7
2016-06-06T19:54:29.657Z,1009.72
2016-06-06T19:55:29.691Z,1009.7
2016-06-06T19:56:29.726Z,1009.73
2016-06-06T19:57:29.760Z,1009.75
2016-06-06T19:58:29.793Z,1009.79
2016-06-06T19:59:29.827Z,1009.76
2016-06-06T20:00:29.861Z,1009.76
2016-06-06T20:01:29.895Z,1009.79
2016-06-06T20:02:29.929Z,1009.76
2016-06-06T20:03:29.962Z,1009.76
2016-06-06T20:04:29.997Z,1009.76
2016-06-06T20:05:30.032Z,1009.76
2016-06-06T20:06:30.064Z,1009.74
2016-06-06T20:07:30.099Z,1009.78
2016-06-06T20:08:30.133Z,1009.74
2016-06-06T20:09:30.167Z,1009.74
2016-06-06T20:10:30.200Z,1009.77
2016-06-06T20:11:30.234Z,1009.76
2016-06-06T20:12:30.269Z,1009.77
2016-06-06T20:13:30.317Z,1009.75
2016-06-06T20:14:30.336Z,1009.77
2016-06-06T20:15:30.370Z,1009.75
2016-06-06T20:16:30.404Z,1009.71
2016-06-06T20:17:30.438Z,1009.74
2016-06-06T20:18:30.472Z,1009.75
2016-06-06T20:19:30.506Z,1009.79
2016-06-06T20:20:30.540Z,1009.76
2016-06-06T20:21:30.575Z,1009.78
2016-06-06T20:22:30.608Z,1009.81
2016-06-06T20:23:30.641Z,1009.8
2016-06-06T20:24:30.676Z,1009.8
2016-06-06T20:25:30.710Z,1009.79
2016-06-06T20:26:30.743Z,1009.78
2016-06-06T20:27:30.762Z,1009.79
2016-06-06T20:28:30.796Z,1009.78
2016-06-06T20:29:30.830Z,1009.75
2016-06-06T20:30:30.863Z,1009.77
2016-06-06T20:31:30.898Z,1009.78
2016-06-06T20:32:30.948Z,1009.78
2016-06-06T20:33:30.966Z,1009.75
2016-06-06T20:34:31.000Z,1009.8
2016-06-06T20:35:31.346Z,1009.77
2016-06-06T20:36:31.067Z,1009.77
2016-06-06T20:37:31.101Z,1009.8
2016-06-06T20:38:31.135Z,1009.8
2016-06-06T20:39:31.169Z,1009.79
2016-06-06T20:40:31.203Z,1009.77
2016-06-06T20:41:31.237Z,1009.74
2016-06-06T20:42:31.334Z,1009.72
2016-06-06T20:43:31.305Z,1009.72
2016-06-06T20:44:31.339Z,1009.73
2016-06-06T20:45:31.372Z,1009.75
2016-06-06T20:46:31.406Z,1009.7
2016-06-06T20:47:31.441Z,1009.72
2016-06-06T20:48:31.459Z,1009.73
2016-06-06T20:49:31.508Z,1009.75
2016-06-06T20:50:32.011Z,1009.71
2016-06-06T20:51:31.560Z,1009.74
2016-06-06T20:52:31.594Z,1009.72
2016-06-06T20:53:31.629Z,1009.7
2016-06-06T20:54:31.663Z,1009.7